createdAt,value
2022-11-24T07:31:09.891Z,17.15
2022-11-24T07:33:40.870Z,16.50
2022-11-24T07:36:10.396Z,17.35
2022-11-24T07:38:38.692Z,18.45
2022-11-24T07:41:08.802Z,18.20
2022-11-24T07:43:38.824Z,18.23
2022-11-24T07:46:11.756Z,17.92
2022-11-24T07:48:40.277Z,17.65
2022-11-24T07:51:09.803Z,18.80
2022-11-24T07:53:38.953Z,15.95
2022-11-24T07:56:08.433Z,17.13
2022-11-24T07:58:39.477Z,18.58
2022-11-24T08:01:13.969Z,17.02
2022-11-24T08:03:43.054Z,18.13
2022-11-24T08:06:31.779Z,18.23
2022-11-24T08:11:31.606Z,16.15
2022-11-24T08:16:34.443Z,16.65
2022-11-24T08:19:05.338Z,16.55
2022-11-24T08:21:33.755Z,18.60
2022-11-24T08:24:02.030Z,18.35
2022-11-24T08:26:30.435Z,18.27
2022-11-24T08:29:00.094Z,18.88
2022-11-24T08:31:33.797Z,19.25
2022-11-24T08:34:07.355Z,18.00
2022-11-24T18:21:43.863Z,14.18
2022-11-24T18:24:13.758Z,14.65
2022-11-24T18:26:44.529Z,15.10
2022-11-24T19:14:06.273Z,14.82
2022-11-24T19:16:35.542Z,15.52
2022-11-24T19:21:38.801Z,14.82
2022-11-24T19:24:10.068Z,15.40
2022-11-24T19:26:38.867Z,15.15
2022-11-24T19:29:10.996Z,15.50
2022-11-24T19:31:40.565Z,16.63
2022-11-24T19:34:09.177Z,15.88
2022-11-24T19:36:38.280Z,16.65
2022-11-24T19:39:06.664Z,16.02
2022-11-24T19:41:35.705Z,15.65
2022-11-24T19:44:04.102Z,17.02
2022-11-24T19:46:33.844Z,16.40
2022-11-24T19:51:35.749Z,15.98
2022-11-24T19:54:05.005Z,15.60
2022-11-24T19:56:35.963Z,15.20
2022-11-24T19:59:06.057Z,16.95
2022-11-24T20:01:38.224Z,15.60
2022-11-24T20:04:08.937Z,16.15
2022-11-24T20:06:39.116Z,16.35
2022-11-24T20:09:09.839Z,16.52
2022-11-24T20:11:40.990Z,16.02
2022-11-24T20:14:12.142Z,17.38
2022-11-24T20:16:42.382Z,17.42
2022-11-24T20:19:20.361Z,16.52
2022-11-24T20:21:50.380Z,16.77
2022-11-24T20:24:20.822Z,17.08
2022-11-24T20:26:51.338Z,19.33
2022-11-24T20:29:20.349Z,19.42
2022-11-24T20:31:52.131Z,19.67
2022-11-24T20:36:50.065Z,19.92
2022-11-24T20:39:20.821Z,20.35
2022-11-24T20:41:49.564Z,20.17
2022-11-24T20:44:19.718Z,19.00
2022-11-24T20:46:52.095Z,20.27
2022-11-24T20:49:21.964Z,20.00
2022-11-24T20:51:54.591Z,19.30
2022-11-24T20:54:23.984Z,20.95
2022-11-24T20:56:52.590Z,21.08
2022-11-24T20:59:23.157Z,21.35
2022-11-24T21:01:55.206Z,21.88
2022-11-24T21:04:26.329Z,21.52
2022-11-24T21:06:54.731Z,21.47
2022-11-24T21:09:23.282Z,22.25
2022-11-24T21:11:51.722Z,21.77
2022-11-24T21:14:20.437Z,20.48
2022-11-24T21:16:48.966Z,20.45
2022-11-24T21:19:19.307Z,21.90
2022-11-24T21:21:49.028Z,21.42
2022-11-24T21:24:21.678Z,20.85
2022-11-24T21:26:52.592Z,21.63
2022-11-24T21:29:23.510Z,22.80
2022-11-24T21:31:54.737Z,22.70
2022-11-24T21:34:27.654Z,21.90
2022-11-24T21:36:56.064Z,22.40
2022-11-24T21:39:24.475Z,21.90
2022-11-24T21:41:52.930Z,22.45
2022-11-24T21:44:21.963Z,21.40
2022-11-24T21:46:56.120Z,22.27
2022-11-24T21:49:24.779Z,22.05
2022-11-24T21:51:55.978Z,21.15
2022-11-24T21:54:24.785Z,20.73
2022-11-24T21:56:55.848Z,21.52
2022-11-24T21:59:24.350Z,21.35
2022-11-24T22:01:52.899Z,22.00
2022-11-24T22:04:21.351Z,21.52
2022-11-24T22:06:49.789Z,20.88
2022-11-24T22:09:19.738Z,21.85
2022-11-24T22:11:49.710Z,20.27
2022-11-24T22:14:18.157Z,20.63
2022-11-24T22:16:47.125Z,20.77
2022-11-24T22:19:15.713Z,21.10
2022-11-24T22:21:44.210Z,21.13
2022-11-24T22:24:12.982Z,21.00
2022-11-24T22:26:42.836Z,20.02
2022-11-24T22:29:11.826Z,20.67
2022-11-24T22:31:40.390Z,20.65
2022-11-24T22:34:10.980Z,19.20
2022-11-24T22:39:13.577Z,19.15
2022-11-24T22:41:43.371Z,18.60
2022-11-24T22:44:14.342Z,19.48
2022-11-24T22:46:45.067Z,19.67
2022-11-24T22:49:13.607Z,19.33
2022-11-24T22:51:44.177Z,20.75
2022-11-24T22:54:14.356Z,18.63
2022-11-24T22:56:44.204Z,19.65
2022-11-24T22:59:12.638Z,20.08
2022-11-24T23:01:41.019Z,20.73
2022-11-24T23:04:09.516Z,20.67
2022-11-24T23:06:38.099Z,20.13
2022-11-24T23:09:07.338Z,19.80
2022-11-24T23:11:38.615Z,19.67
2022-11-24T23:14:12.255Z,21.45
2022-11-24T23:16:40.920Z,20.17
2022-11-24T23:19:09.906Z,20.75
2022-11-24T23:21:39.844Z,21.23
2022-11-24T23:24:10.388Z,18.92
2022-11-24T23:26:40.282Z,20.17
2022-11-24T23:29:11.506Z,20.00
2022-11-24T23:31:40.948Z,19.23
2022-11-24T23:34:09.639Z,19.58
2022-11-24T23:36:38.089Z,19.63
2022-11-24T23:39:08.098Z,19.08
2022-11-24T23:41:36.658Z,20.15
2022-11-24T23:44:05.243Z,19.20
2022-11-24T23:46:35.335Z,17.88
2022-11-24T23:49:03.745Z,17.35
2022-11-24T23:51:33.579Z,16.67
2022-11-24T23:54:02.448Z,17.05
2022-11-24T23:56:33.347Z,18.65
2022-11-24T23:59:02.952Z,17.35
